Time;durP1;ratioP1;P1;durP2;ratioP2;P2;SDS_P1;SDS_P2;PMS_P1;PMS_P2;Temp;Humidity;BMP_temperature;BMP_pressure;BME280_temperature;BME280_humidity;BME280_pressure;Samples;Min_cycle;Max_cycle;Signal;HPM_P1;HPM_P2
2021/11/07 00:04:46;;;;;;;34.67;13.88;;;1.10;99.90;;;;;;20806605;28;20029;-76
2021/11/07 00:14:52;;;;;;;67.05;15.52;;;1.30;99.90;;;;;;20813998;28;20151;-75
2021/11/07 00:25:00;;;;;;;56.47;15.30;;;1.40;99.90;;;;;;20792171;28;20037;-77
2021/11/07 00:35:36;;;;;;;173.07;17.98;;;1.60;99.90;;;;;;20812797;28;20104;-75
2021/11/07 00:45:35;;;;;;;273.85;24.42;;;1.60;99.90;;;;;;20811265;28;20453;-76
2021/11/07 00:55:42;;;;;;;72.35;19.42;;;1.00;99.90;;;;;;20798560;28;20095;-76
2021/11/07 01:05:43;;;;;;;73.70;17.60;;;1.10;99.90;;;;;;20796962;28;20032;-77
2021/11/07 01:15:44;;;;;;;63.28;17.25;;;1.40;99.90;;;;;;20796113;28;20039;-76
2021/11/07 01:25:48;;;;;;;70.88;19.13;;;1.50;99.90;;;;;;20799961;28;20045;-77
2021/11/07 01:56:06;;;;;;;63.70;16.60;;;1.90;99.90;;;;;;20793468;28;20061;-77
2021/11/07 02:06:06;;;;;;;65.30;16.40;;;1.90;99.90;;;;;;20792940;28;20079;-76
2021/11/07 02:16:08;;;;;;;72.18;18.65;;;1.80;99.90;;;;;;20792386;28;20033;-77
2021/11/07 02:26:09;;;;;;;67.28;18.63;;;1.70;99.90;;;;;;20818470;28;20504;-77
2021/11/07 02:36:19;;;;;;;49.35;15.30;;;2.00;99.90;;;;;;20829817;28;20039;-77
2021/11/07 02:46:21;;;;;;;28.77;10.95;;;2.00;99.90;;;;;;20832822;28;20489;-77
2021/11/07 02:56:22;;;;;;;26.30;10.82;;;2.10;99.90;;;;;;20830434;28;20404;-76
2021/11/07 03:06:23;;;;;;;26.45;10.50;;;2.00;99.90;;;;;;20827703;28;20500;-77
2021/11/07 03:16:24;;;;;;;28.35;10.68;;;1.80;99.90;;;;;;20826766;28;20094;-77
2021/11/07 03:26:26;;;;;;;20.70;8.52;;;1.70;99.90;;;;;;20824514;28;20503;-77
2021/11/07 03:36:32;;;;;;;30.38;9.82;;;1.50;99.90;;;;;;20825870;28;20454;-77
2021/11/07 03:46:34;;;;;;;22.90;10.30;;;1.10;99.90;;;;;;20811670;28;20109;-76
2021/11/07 03:56:35;;;;;;;23.50;9.63;;;0.90;99.90;;;;;;20827691;28;20049;-77
2021/11/07 04:06:36;;;;;;;30.52;11.00;;;1.00;99.90;;;;;;20872311;28;20033;-77
2021/11/07 04:16:38;;;;;;;24.10;9.35;;;1.10;99.90;;;;;;20857372;28;20056;-77
2021/11/07 04:26:39;;;;;;;24.23;10.18;;;1.20;99.90;;;;;;20843825;28;20124;-76
2021/11/07 04:36:40;;;;;;;33.65;11.35;;;1.20;99.90;;;;;;20857542;28;20488;-77
2021/11/07 04:46:41;;;;;;;45.45;12.88;;;1.10;99.90;;;;;;20854060;28;20025;-78
2021/11/07 04:56:42;;;;;;;59.67;15.85;;;1.30;99.90;;;;;;20863091;28;20515;-77
2021/11/07 05:06:43;;;;;;;73.15;17.27;;;1.30;99.90;;;;;;20868632;28;20025;-77
2021/11/07 05:16:44;;;;;;;78.22;17.60;;;1.50;99.90;;;;;;20865301;28;20029;-77
2021/11/07 05:26:45;;;;;;;95.72;21.25;;;1.60;99.90;;;;;;20864563;28;20029;-77
2021/11/07 05:36:46;;;;;;;69.13;18.42;;;1.70;99.90;;;;;;20842291;28;20116;-77
2021/11/07 05:46:47;;;;;;;83.03;20.15;;;1.80;99.90;;;;;;20831904;28;20126;-77
2021/11/07 05:56:48;;;;;;;69.55;17.70;;;1.80;99.90;;;;;;20830880;28;20116;-77
2021/11/07 06:06:49;;;;;;;112.57;19.05;;;1.70;99.90;;;;;;20830323;28;20064;-77
2021/11/07 06:16:50;;;;;;;73.70;18.83;;;1.60;99.90;;;;;;20827259;28;20488;-77
2021/11/07 06:26:53;;;;;;;196.68;21.05;;;1.60;99.90;;;;;;20828925;28;20021;-77
2021/11/07 06:36:54;;;;;;;124.88;18.67;;;1.70;99.90;;;;;;20831780;28;20025;-77
2021/11/07 06:46:55;;;;;;;70.78;19.42;;;1.80;99.90;;;;;;20827219;28;20079;-77
2021/11/07 06:56:57;;;;;;;92.15;27.27;;;1.70;99.90;;;;;;20829412;28;20025;-77
2021/11/07 07:06:58;;;;;;;68.78;19.92;;;1.90;99.90;;;;;;20809224;28;20091;-77
2021/11/07 07:17:21;;;;;;;364.60;35.30;;;2.30;99.90;;;;;;20825876;28;20029;-77
2021/11/07 07:27:34;;;;;;;80.53;21.60;;;2.20;99.90;;;;;;20830413;28;20037;-77
2021/11/07 07:37:35;;;;;;;304.58;29.73;;;2.30;99.90;;;;;;20838919;28;20026;-77
2021/11/07 07:47:36;;;;;;;112.47;30.90;;;2.20;99.90;;;;;;20838831;28;20590;-76
2021/11/07 07:57:39;;;;;;;135.13;26.27;;;2.20;99.90;;;;;;20840007;28;20045;-77
2021/11/07 08:07:45;;;;;;;284.70;27.98;;;2.30;99.90;;;;;;20841911;28;20030;-76
2021/11/07 08:17:45;;;;;;;109.30;22.80;;;2.30;99.90;;;;;;20837311;28;20109;-76
2021/11/07 08:27:48;;;;;;;60.13;19.88;;;2.70;99.90;;;;;;20842800;28;20069;-77
2021/11/07 08:38:08;;;;;;;56.78;19.80;;;3.10;99.90;;;;;;20835053;28;20431;-77
2021/11/07 09:08:51;;;;;;;42.75;18.20;;;3.50;99.90;;;;;;20891750;28;20041;-79
2021/11/07 09:18:56;;;;;;;37.60;17.70;;;3.90;99.90;;;;;;20877095;28;20064;-78
2021/11/07 09:29:02;;;;;;;40.92;16.38;;;4.40;99.90;;;;;;20872396;28;20095;-78
2021/11/07 09:49:21;;;;;;;38.88;16.75;;;4.40;99.90;;;;;;20872573;28;20056;-78
2021/11/07 09:59:24;;;;;;;23.05;12.57;;;5.60;99.90;;;;;;20845281;28;20311;-79
2021/11/07 10:09:39;;;;;;;24.90;13.13;;;8.10;99.90;;;;;;20843969;28;20099;-78
2021/11/07 10:19:42;;;;;;;19.88;11.63;;;7.70;99.90;;;;;;20841883;28;20107;-75
2021/11/07 10:29:49;;;;;;;19.95;10.82;;;7.90;99.90;;;;;;20842515;28;20025;-78
2021/11/07 11:00:31;;;;;;;14.05;7.80;;;8.60;99.90;;;;;;20802502;28;20409;-77
2021/11/07 11:31:26;;;;;;;9.05;5.57;;;8.60;99.90;;;;;;20822608;28;20115;-76
2021/11/07 11:41:44;;;;;;;8.98;4.93;;;9.00;99.90;;;;;;20811126;28;20049;-77
2021/11/07 11:52:07;;;;;;;8.23;4.25;;;9.50;99.90;;;;;;20800153;28;20132;-77
2021/11/07 12:02:46;;;;;;;7.05;4.60;;;9.90;99.90;;;;;;20797207;28;20037;-78
2021/11/07 12:22:47;;;;;;;6.13;3.55;;;10.90;99.90;;;;;;20811368;28;20087;-80
2021/11/07 12:32:59;;;;;;;3.80;2.33;;;11.00;99.90;;;;;;20814362;28;20057;-81
2021/11/07 12:43:14;;;;;;;2.95;1.90;;;10.70;99.90;;;;;;20827159;28;20025;-81
2021/11/07 12:53:15;;;;;;;6.20;2.95;;;10.90;99.90;;;;;;20833006;28;20025;-81
2021/11/07 13:03:17;;;;;;;4.03;1.53;;;11.30;99.90;;;;;;20808058;28;20037;-80
2021/11/07 13:34:06;;;;;;;5.57;2.35;;;11.50;99.90;;;;;;20827078;28;20064;-83
2021/11/07 13:44:14;;;;;;;6.18;2.17;;;11.40;99.90;;;;;;20807283;28;20044;-82
2021/11/07 13:54:15;;;;;;;5.90;2.85;;;11.80;99.90;;;;;;20816421;28;20033;-82
2021/11/07 14:04:16;;;;;;;4.73;2.33;;;13.20;99.90;;;;;;20814341;28;20054;-81
2021/11/07 14:14:19;;;;;;;3.67;2.20;;;12.10;99.90;;;;;;20811967;28;20025;-78
2021/11/07 14:24:33;;;;;;;6.15;2.00;;;10.90;99.90;;;;;;20792600;28;20033;-79
2021/11/07 14:56:19;;;;;;;;;;;11.00;99.90;;;;;;20815306;28;20052;-78
2021/11/07 15:06:28;;;;;;;5.95;2.28;;;10.60;99.90;;;;;;20801716;28;20136;-77
2021/11/07 15:16:38;;;;;;;3.15;1.23;;;10.20;99.90;;;;;;20751537;28;20055;-79
2021/11/07 15:26:46;;;;;;;2.42;1.42;;;10.20;99.90;;;;;;20765725;28;20045;-77
2021/11/07 15:36:48;;;;;;;3.67;1.40;;;9.80;99.90;;;;;;20800446;28;20053;-77
2021/11/07 15:46:51;;;;;;;4.47;2.38;;;9.30;99.90;;;;;;20751732;28;20083;-78
2021/11/07 15:57:16;;;;;;;4.70;2.05;;;9.20;99.90;;;;;;20777543;28;20026;-77
2021/11/07 16:07:22;;;;;;;2.78;1.52;;;9.00;99.90;;;;;;20775628;28;20030;-79
2021/11/07 16:17:26;;;;;;;2.10;1.48;;;8.70;99.90;;;;;;20772719;28;20068;-78
2021/11/07 16:27:27;;;;;;;6.30;1.63;;;8.50;99.90;;;;;;20754476;28;20124;-78
2021/11/07 16:38:15;;;;;;;6.03;2.00;;;8.50;99.90;;;;;;20769756;28;20471;-79
2021/11/07 16:47:57;;;;;;;2.50;1.35;;;8.40;99.90;;;;;;20798700;28;20049;-81
2021/11/07 16:57:59;;;;;;;5.57;3.08;;;8.40;99.90;;;;;;20822524;28;20081;-83
2021/11/07 17:08:16;;;;;;;;;;;8.30;99.90;;;;;;20825770;28;20361;-80
2021/11/07 17:18:23;;;;;;;3.70;1.73;;;8.30;99.90;;;;;;20802376;28;19918;-80
2021/11/07 17:29:11;;;;;;;15.20;7.80;;;8.20;99.90;;;;;;20856481;28;20156;-79
2021/11/07 17:58:56;;;;;;;7.00;3.40;;;8.00;99.90;;;;;;20869869;28;20119;-82
2021/11/07 18:09:03;;;;;;;7.80;4.47;;;7.90;99.90;;;;;;20873154;23;20041;-79
2021/11/07 18:19:04;;;;;;;9.25;5.03;;;7.70;99.90;;;;;;20806253;28;20057;-76
2021/11/07 18:29:05;;;;;;;12.68;4.95;;;7.50;99.90;;;;;;20790018;28;20541;-79
2021/11/07 18:39:07;;;;;;;7.38;3.92;;;7.40;99.90;;;;;;20791043;28;20087;-79
2021/11/07 18:49:08;;;;;;;6.05;3.88;;;7.30;99.90;;;;;;20772073;28;20488;-77
2021/11/07 18:59:09;;;;;;;6.63;4.27;;;7.20;99.90;;;;;;20790766;28;20056;-78
2021/11/07 19:09:10;;;;;;;14.13;5.43;;;7.20;99.90;;;;;;20773546;28;20175;-79
2021/11/07 19:19:11;;;;;;;9.87;5.13;;;7.20;99.90;;;;;;20773843;28;20041;-80
2021/11/07 19:29:11;;;;;;;9.40;5.30;;;7.20;99.90;;;;;;20805106;28;20029;-79
2021/11/07 19:39:14;;;;;;;10.03;5.63;;;7.30;99.90;;;;;;20803886;28;20812;-79
2021/11/07 19:49:22;;;;;;;7.78;4.85;;;7.20;99.90;;;;;;20804014;28;20393;-79
2021/11/07 19:59:25;;;;;;;9.27;5.43;;;7.30;99.90;;;;;;20802629;28;20037;-79
2021/11/07 20:09:29;;;;;;;9.85;4.72;;;7.30;99.90;;;;;;20801607;28;20069;-79
2021/11/07 20:19:30;;;;;;;10.43;6.10;;;7.20;99.90;;;;;;20783376;28;20044;-78
2021/11/07 20:29:35;;;;;;;16.03;7.70;;;7.20;99.90;;;;;;20798675;28;20404;-78
2021/11/07 20:39:39;;;;;;;9.27;6.30;;;7.20;99.90;;;;;;20799564;28;20744;-78
2021/11/07 20:50:00;;;;;;;11.48;6.22;;;7.20;99.90;;;;;;20799799;28;20029;-79
2021/11/07 21:00:14;;;;;;;11.68;6.85;;;7.20;99.90;;;;;;20783667;28;20040;-80
2021/11/07 21:10:25;;;;;;;13.52;7.60;;;7.20;99.90;;;;;;20798904;28;20029;-79
2021/11/07 21:30:47;;;;;;;15.20;7.57;;;7.10;99.90;;;;;;20780096;28;20068;-79
2021/11/07 21:40:59;;;;;;;16.15;8.07;;;7.20;99.90;;;;;;20796126;28;20029;-80
2021/11/07 21:51:00;;;;;;;29.55;12.13;;;7.10;99.90;;;;;;20776359;28;20396;-78
2021/11/07 22:01:01;;;;;;;24.93;10.17;;;7.10;99.90;;;;;;20775586;28;20041;-79
2021/11/07 22:11:02;;;;;;;12.47;7.33;;;7.10;99.90;;;;;;20793530;28;20403;-79
2021/11/07 22:21:08;;;;;;;16.50;7.88;;;7.10;99.90;;;;;;20795842;28;20041;-78
2021/11/07 22:31:10;;;;;;;12.93;8.32;;;7.10;99.90;;;;;;20775314;28;20463;-79
2021/11/07 22:41:11;;;;;;;9.05;5.00;;;7.00;99.90;;;;;;20792296;28;20041;-79
2021/11/07 23:11:39;;;;;;;6.15;4.15;;;7.30;99.90;;;;;;20767240;28;20484;-79
2021/11/07 23:21:41;;;;;;;6.05;4.28;;;7.30;99.90;;;;;;20797590;28;20472;-79
2021/11/07 23:31:43;;;;;;;5.25;3.58;;;7.30;99.90;;;;;;20788402;28;20045;-78
2021/11/07 23:41:45;;;;;;;7.55;4.40;;;7.30;99.90;;;;;;20788767;28;20037;-78
